createdAt,value
2018-12-25T00:00:23.039Z,90.30
2018-12-25T00:02:52.784Z,90.50
2018-12-25T00:05:22.561Z,90.40
2018-12-25T00:07:52.380Z,90.40
2018-12-25T00:10:22.117Z,90.40
2018-12-25T00:12:51.954Z,90.20
2018-12-25T00:15:21.704Z,90.10
2018-12-25T00:17:51.490Z,89.80
2018-12-25T00:20:21.273Z,89.80
2018-12-25T00:22:51.069Z,89.70
2018-12-25T00:25:20.795Z,89.80
2018-12-25T00:27:50.563Z,90.00
2018-12-25T00:30:20.317Z,90.30
2018-12-25T00:32:50.068Z,90.40
2018-12-25T00:35:19.894Z,90.50
2018-12-25T00:37:49.723Z,90.60
2018-12-25T00:40:19.413Z,90.70
2018-12-25T00:42:49.214Z,91.00
2018-12-25T00:45:19.022Z,90.80
2018-12-25T00:47:48.734Z,90.80
2018-12-25T00:50:18.498Z,91.00
2018-12-25T00:52:48.249Z,91.10
2018-12-25T00:55:18.017Z,90.70
2018-12-25T00:57:47.721Z,90.60
2018-12-25T01:00:17.596Z,90.70
2018-12-25T01:02:47.422Z,91.00
2018-12-25T01:05:17.221Z,90.60
2018-12-25T01:07:47.083Z,90.50
2018-12-25T01:10:16.889Z,90.40
2018-12-25T01:12:46.674Z,90.10
2018-12-25T01:15:16.437Z,90.30
2018-12-25T01:17:46.224Z,90.20
2018-12-25T01:20:15.964Z,90.10
2018-12-25T01:22:45.797Z,90.20
2018-12-25T01:25:15.589Z,90.10
2018-12-25T01:27:45.412Z,89.90
2018-12-25T01:30:15.194Z,89.80
2018-12-25T01:32:45.223Z,90.10
2018-12-25T01:35:15.016Z,90.40
2018-12-25T01:37:44.902Z,90.60
2018-12-25T01:40:14.741Z,90.60
2018-12-25T01:42:44.492Z,90.60
2018-12-25T01:45:14.306Z,90.70
2018-12-25T01:47:44.125Z,90.80
2018-12-25T01:50:13.913Z,91.10
2018-12-25T01:52:43.628Z,91.10
2018-12-25T01:55:13.396Z,90.80
2018-12-25T01:57:43.197Z,91.20
2018-12-25T02:00:12.882Z,91.30
2018-12-25T02:02:42.700Z,91.40
2018-12-25T02:05:12.454Z,91.40
2018-12-25T02:07:42.244Z,91.60
2018-12-25T02:10:12.086Z,91.50
2018-12-25T02:12:41.890Z,91.40
2018-12-25T02:15:11.638Z,91.20
2018-12-25T02:17:41.423Z,91.20
2018-12-25T02:20:11.190Z,91.20
2018-12-25T02:22:40.985Z,91.20
2018-12-25T02:25:10.902Z,91.40
2018-12-25T02:27:40.718Z,91.50
2018-12-25T02:30:10.440Z,91.80
2018-12-25T02:32:40.237Z,91.80
2018-12-25T02:35:10.076Z,91.60
2018-12-25T02:37:39.824Z,91.50
2018-12-25T02:40:09.714Z,91.60
2018-12-25T02:42:39.575Z,91.50
2018-12-25T02:45:09.327Z,91.60
2018-12-25T02:47:39.049Z,91.60
2018-12-25T02:50:08.823Z,91.50
2018-12-25T02:52:38.623Z,91.90
2018-12-25T02:55:08.370Z,92.00
2018-12-25T02:57:38.209Z,92.40
2018-12-25T03:00:08.684Z,92.00
2018-12-25T03:02:38.521Z,91.80
2018-12-25T03:05:08.282Z,91.70
2018-12-25T03:07:38.103Z,92.00
2018-12-25T03:10:08.797Z,92.00
2018-12-25T03:12:38.625Z,91.90
2018-12-25T03:15:08.410Z,91.90
2018-12-25T03:17:38.215Z,92.00
2018-12-25T03:20:08.007Z,92.00
2018-12-25T03:22:37.836Z,91.70
2018-12-25T03:25:07.640Z,91.20
2018-12-25T03:27:37.473Z,91.40
2018-12-25T03:30:07.211Z,91.30
2018-12-25T03:32:37.016Z,91.60
2018-12-25T03:35:06.906Z,91.50
2018-12-25T03:37:36.623Z,91.70
2018-12-25T03:40:07.002Z,91.90
2018-12-25T03:42:36.844Z,91.70
2018-12-25T03:45:07.000Z,91.70
2018-12-25T03:47:36.921Z,91.70
2018-12-25T03:50:10.855Z,91.80
2018-12-25T03:52:39.177Z,91.90
2018-12-25T03:55:08.874Z,91.80
2018-12-25T03:57:39.121Z,91.50
2018-12-25T04:00:08.910Z,91.60
2018-12-25T04:02:38.719Z,91.50
2018-12-25T04:05:08.526Z,91.60
2018-12-25T04:07:38.375Z,91.50
2018-12-25T04:10:08.234Z,91.40
2018-12-25T04:12:37.989Z,91.60
2018-12-25T04:15:07.914Z,91.90
2018-12-25T04:17:37.740Z,92.20
2018-12-25T04:20:08.326Z,92.30
2018-12-25T04:22:38.109Z,91.90
2018-12-25T04:25:07.950Z,92.00
2018-12-25T04:27:37.702Z,92.20
2018-12-25T04:30:07.494Z,92.30
2018-12-25T04:32:37.257Z,92.30
2018-12-25T04:35:07.198Z,92.40
2018-12-25T04:37:37.008Z,92.40
2018-12-25T04:40:06.915Z,92.10
2018-12-25T04:42:36.634Z,91.80
2018-12-25T04:45:06.526Z,91.80
2018-12-25T04:47:36.334Z,92.30
2018-12-25T04:50:06.148Z,92.60
2018-12-25T04:52:35.959Z,92.60
2018-12-25T04:55:05.943Z,92.70
2018-12-25T04:57:35.701Z,92.40
2018-12-25T05:00:06.178Z,92.50
2018-12-25T05:02:35.979Z,92.90
2018-12-25T05:05:05.826Z,93.10
2018-12-25T05:07:35.666Z,93.00
2018-12-25T05:10:05.573Z,93.20
2018-12-25T05:12:35.328Z,93.20
2018-12-25T05:15:05.228Z,93.10
2018-12-25T05:17:34.824Z,93.10
2018-12-25T05:20:05.113Z,93.00
2018-12-25T05:22:35.560Z,93.00
2018-12-25T05:25:05.430Z,93.10
2018-12-25T05:27:35.229Z,93.20
2018-12-25T05:30:05.175Z,93.30
2018-12-25T05:32:34.969Z,93.30
2018-12-25T05:35:04.969Z,93.10
2018-12-25T05:37:34.806Z,93.20
2018-12-25T05:40:04.742Z,92.90
2018-12-25T05:42:34.553Z,92.90
2018-12-25T05:45:04.412Z,92.90
2018-12-25T05:47:34.205Z,93.00
2018-12-25T05:50:04.049Z,93.10
2018-12-25T05:52:34.487Z,93.40
2018-12-25T05:55:04.300Z,93.70
2018-12-25T05:57:34.093Z,94.00
2018-12-25T06:00:03.959Z,94.20
2018-12-25T06:02:33.762Z,94.40
2018-12-25T06:05:03.492Z,94.20
2018-12-25T06:07:33.318Z,94.40
2018-12-25T06:10:03.098Z,94.50
2018-12-25T06:12:33.027Z,94.60
2018-12-25T06:15:02.758Z,94.40
2018-12-25T06:17:32.490Z,94.10
2018-12-25T06:20:02.605Z,94.30
2018-12-25T06:22:32.362Z,94.40
2018-12-25T06:25:02.123Z,94.60
2018-12-25T06:27:32.030Z,94.90
2018-12-25T06:30:01.772Z,94.60
2018-12-25T06:32:31.487Z,94.30
2018-12-25T06:35:01.322Z,94.10
2018-12-25T06:37:31.081Z,94.00
2018-12-25T06:40:00.875Z,94.40
2018-12-25T06:42:30.649Z,94.30
2018-12-25T06:45:03.558Z,94.20
2018-12-25T06:47:33.354Z,93.80
2018-12-25T06:50:03.194Z,93.80
2018-12-25T06:52:32.941Z,93.70
2018-12-25T06:55:02.721Z,93.70
2018-12-25T06:57:32.561Z,93.60
2018-12-25T07:00:02.418Z,93.30
2018-12-25T07:02:32.221Z,93.40
2018-12-25T07:05:01.950Z,93.30
2018-12-25T07:07:31.719Z,93.20
2018-12-25T07:10:01.555Z,93.10
2018-12-25T07:12:31.321Z,93.30
2018-12-25T07:15:01.187Z,93.30
2018-12-25T07:17:31.105Z,93.10
2018-12-25T07:20:00.972Z,93.20
2018-12-25T07:22:30.773Z,92.80
2018-12-25T07:25:00.576Z,92.30
2018-12-25T07:27:30.322Z,92.00
2018-12-25T07:30:00.097Z,91.90
2018-12-25T07:32:29.934Z,92.00
2018-12-25T07:34:59.687Z,92.00
2018-12-25T07:37:29.478Z,91.90
2018-12-25T07:39:59.285Z,92.60
2018-12-25T07:42:29.149Z,92.50
2018-12-25T07:45:29.508Z,92.20
2018-12-25T07:47:59.549Z,91.70
2018-12-25T07:50:29.236Z,91.60
2018-12-25T07:52:59.004Z,91.90
2018-12-25T07:55:28.795Z,91.20
2018-12-25T07:57:58.613Z,90.90
2018-12-25T08:00:28.378Z,91.10
2018-12-25T08:02:58.144Z,90.90
2018-12-25T08:05:27.998Z,91.10
2018-12-25T08:07:57.879Z,90.80
2018-12-25T08:10:27.724Z,90.60
2018-12-25T08:12:57.596Z,90.50
2018-12-25T08:15:27.326Z,90.40
2018-12-25T08:17:57.078Z,90.10
2018-12-25T08:20:26.925Z,90.10
2018-12-25T08:23:02.547Z,89.80
2018-12-25T08:25:28.194Z,89.50
2018-12-25T08:27:58.029Z,89.70
2018-12-25T08:30:27.798Z,89.50
2018-12-25T08:32:57.661Z,89.40
2018-12-25T08:35:27.456Z,89.30
2018-12-25T08:37:57.393Z,89.40
2018-12-25T08:40:27.162Z,89.50
2018-12-25T08:42:56.991Z,89.40
2018-12-25T08:45:26.843Z,89.40
2018-12-25T08:47:56.636Z,89.40
2018-12-25T08:50:26.434Z,89.50
2018-12-25T08:52:56.573Z,89.60
2018-12-25T08:55:26.384Z,89.70
2018-12-25T08:57:56.588Z,89.60
2018-12-25T09:00:26.519Z,89.30
2018-12-25T09:02:57.346Z,89.60
2018-12-25T09:05:27.172Z,89.40
2018-12-25T09:07:57.102Z,88.60
2018-12-25T09:10:26.842Z,88.60
2018-12-25T09:12:56.605Z,88.60
2018-12-25T09:15:26.478Z,88.10
2018-12-25T09:17:56.245Z,88.00
2018-12-25T09:20:26.134Z,88.40
2018-12-25T09:22:55.920Z,88.10
2018-12-25T09:25:25.789Z,88.20
2018-12-25T09:27:55.621Z,88.40
2018-12-25T09:30:25.407Z,88.50
2018-12-25T09:32:55.109Z,89.20
2018-12-25T09:35:24.917Z,89.30
2018-12-25T09:37:54.690Z,89.00
2018-12-25T09:40:24.474Z,89.20
2018-12-25T09:42:54.319Z,89.30
2018-12-25T09:45:24.076Z,89.70
2018-12-25T09:47:53.952Z,89.30
2018-12-25T09:50:23.756Z,89.30
2018-12-25T09:52:53.605Z,89.00
2018-12-25T09:55:23.444Z,88.80
2018-12-25T09:57:53.239Z,89.00
2018-12-25T10:00:23.024Z,89.20
2018-12-25T10:02:52.837Z,88.70
2018-12-25T10:05:22.618Z,88.50
2018-12-25T10:07:52.321Z,88.20
2018-12-25T10:10:22.109Z,88.50
2018-12-25T10:12:51.902Z,88.70
2018-12-25T10:15:21.721Z,88.30
2018-12-25T10:17:51.479Z,87.40
2018-12-25T10:20:21.223Z,87.00
2018-12-25T10:22:51.045Z,87.40
2018-12-25T10:25:20.869Z,87.60
2018-12-25T10:27:50.643Z,87.30
2018-12-25T10:30:20.371Z,87.60
2018-12-25T10:32:50.102Z,87.10
2018-12-25T10:35:22.623Z,87.80
2018-12-25T10:37:52.457Z,87.10
2018-12-25T10:40:22.250Z,87.00
2018-12-25T10:42:52.100Z,85.90
2018-12-25T10:45:21.895Z,87.00
2018-12-25T10:47:53.396Z,86.80
2018-12-25T10:50:23.213Z,86.70
2018-12-25T10:52:52.997Z,87.20
2018-12-25T10:55:22.735Z,87.80
2018-12-25T10:57:52.528Z,88.70
2018-12-25T11:00:23.958Z,88.40
2018-12-25T11:02:53.921Z,87.90
2018-12-25T11:05:23.817Z,87.60
2018-12-25T11:07:53.529Z,88.10
2018-12-25T11:10:23.344Z,88.30
2018-12-25T11:12:53.235Z,87.30
2018-12-25T11:15:23.001Z,86.90
2018-12-25T11:17:52.769Z,87.00
2018-12-25T11:20:22.626Z,87.20
2018-12-25T11:22:52.363Z,86.70
2018-12-25T11:25:22.250Z,87.20
2018-12-25T11:27:52.049Z,87.20
2018-12-25T11:30:21.877Z,87.10
2018-12-25T11:32:51.705Z,87.90
2018-12-25T11:35:21.458Z,87.60
2018-12-25T11:37:51.238Z,87.10
2018-12-25T11:40:21.014Z,86.50
2018-12-25T11:42:50.925Z,86.10
2018-12-25T11:45:20.778Z,86.10
2018-12-25T11:47:50.633Z,85.60
2018-12-25T11:50:20.429Z,86.00
2018-12-25T11:52:50.185Z,86.20
2018-12-25T11:55:20.047Z,86.50
2018-12-25T11:57:49.830Z,85.80
2018-12-25T12:00:19.593Z,86.20
2018-12-25T12:02:49.369Z,85.90
2018-12-25T12:05:19.155Z,86.20
2018-12-25T12:07:48.977Z,86.30
2018-12-25T12:10:18.730Z,85.80
2018-12-25T12:12:48.569Z,86.10
2018-12-25T12:15:18.346Z,87.00
2018-12-25T12:17:48.130Z,87.20
2018-12-25T12:20:17.959Z,86.60
2018-12-25T12:22:47.769Z,86.60
2018-12-25T12:25:17.609Z,86.20
2018-12-25T12:27:47.361Z,85.70
2018-12-25T12:30:17.141Z,85.40
2018-12-25T12:32:47.056Z,85.10
2018-12-25T12:35:16.771Z,84.80
2018-12-25T12:37:46.560Z,84.90
2018-12-25T12:40:16.361Z,85.00
2018-12-25T12:42:46.167Z,85.50
2018-12-25T12:45:15.902Z,85.00
2018-12-25T12:47:45.714Z,84.70
2018-12-25T12:50:15.473Z,85.00
2018-12-25T12:52:45.936Z,85.10
2018-12-25T12:55:15.758Z,85.40
2018-12-25T12:57:45.530Z,85.60
2018-12-25T13:00:15.266Z,85.70
2018-12-25T13:02:45.230Z,85.00
2018-12-25T13:05:15.025Z,85.00
2018-12-25T13:07:44.735Z,85.20
2018-12-25T13:10:14.548Z,85.00
2018-12-25T13:12:44.342Z,85.20
2018-12-25T13:15:14.110Z,85.30
2018-12-25T13:17:45.412Z,84.90
2018-12-25T13:20:15.428Z,85.10
2018-12-25T13:22:45.242Z,85.30
2018-12-25T13:25:15.165Z,84.60
2018-12-25T13:27:44.910Z,85.00
2018-12-25T13:30:14.646Z,84.90
2018-12-25T13:32:44.470Z,85.10
2018-12-25T13:35:14.262Z,85.20
2018-12-25T13:37:44.036Z,85.40
2018-12-25T13:40:13.817Z,84.60
2018-12-25T13:42:43.591Z,83.90
2018-12-25T13:45:13.409Z,84.20
2018-12-25T13:47:43.324Z,84.30
2018-12-25T13:50:13.078Z,84.60
2018-12-25T13:52:42.845Z,84.50
2018-12-25T13:55:12.609Z,84.50
2018-12-25T13:57:42.409Z,84.60
2018-12-25T14:00:12.182Z,84.70
2018-12-25T14:02:42.025Z,84.70
2018-12-25T14:05:11.815Z,84.50
2018-12-25T14:07:41.643Z,84.90
2018-12-25T14:10:11.458Z,84.80
2018-12-25T14:12:41.252Z,84.80
2018-12-25T14:15:11.053Z,85.10
2018-12-25T14:17:40.738Z,85.90
2018-12-25T14:20:10.490Z,86.40
2018-12-25T14:22:40.298Z,86.50
2018-12-25T14:25:10.090Z,86.60
2018-12-25T14:27:39.962Z,86.40
2018-12-25T14:30:09.868Z,86.40
2018-12-25T14:32:39.793Z,86.40
2018-12-25T14:35:09.607Z,86.30
2018-12-25T14:37:39.417Z,86.50
2018-12-25T14:40:09.394Z,86.70
2018-12-25T14:42:39.195Z,87.30
2018-12-25T14:45:09.222Z,87.40
2018-12-25T14:47:39.105Z,87.70
2018-12-25T14:50:09.231Z,87.60
2018-12-25T14:52:39.146Z,87.60
2018-12-25T14:55:08.869Z,87.70
2018-12-25T14:57:38.666Z,87.70
2018-12-25T15:00:09.707Z,87.90
2018-12-25T15:02:48.542Z,88.10
2018-12-25T15:05:18.460Z,87.90
2018-12-25T15:07:48.430Z,88.10
2018-12-25T15:10:18.349Z,88.50
2018-12-25T15:12:48.129Z,88.20
2018-12-25T15:15:18.022Z,87.90
2018-12-25T15:17:47.932Z,87.80
2018-12-25T15:20:17.721Z,87.70
2018-12-25T15:22:47.518Z,87.70
2018-12-25T15:25:17.591Z,87.80
2018-12-25T15:27:47.397Z,88.10
2018-12-25T15:30:17.279Z,88.00
2018-12-25T15:32:47.101Z,88.00
2018-12-25T15:35:17.062Z,87.70
2018-12-25T15:37:46.816Z,88.00
2018-12-25T15:40:16.708Z,88.20
2018-12-25T15:42:46.458Z,88.70
2018-12-25T15:45:16.186Z,88.90
2018-12-25T15:47:45.998Z,89.00
2018-12-25T15:50:15.885Z,89.00
2018-12-25T15:52:45.620Z,89.20
2018-12-25T15:55:15.910Z,89.00
2018-12-25T15:57:45.634Z,88.70
2018-12-25T16:00:17.970Z,88.60
2018-12-25T16:02:47.769Z,89.10
2018-12-25T16:05:17.520Z,89.30
2018-12-25T16:07:47.391Z,89.50
2018-12-25T16:10:17.215Z,89.30
2018-12-25T16:12:46.930Z,89.70
2018-12-25T16:15:16.838Z,89.70
2018-12-25T16:17:46.663Z,89.50
2018-12-25T16:20:16.482Z,89.60
2018-12-25T16:22:46.336Z,89.70
2018-12-25T16:25:16.144Z,89.80
2018-12-25T16:27:45.926Z,89.80
2018-12-25T16:30:15.801Z,89.60
2018-12-25T16:32:45.527Z,89.40
2018-12-25T16:35:15.313Z,89.40
2018-12-25T16:37:45.060Z,89.20
2018-12-25T16:40:14.902Z,89.10
2018-12-25T16:42:44.657Z,89.40
2018-12-25T16:45:14.518Z,89.70
2018-12-25T16:47:44.432Z,90.20
2018-12-25T16:50:14.258Z,90.50
2018-12-25T16:52:43.985Z,90.70
2018-12-25T16:55:13.777Z,90.50
2018-12-25T16:57:43.609Z,90.10
2018-12-25T17:00:13.476Z,90.10
2018-12-25T17:02:43.226Z,90.10
2018-12-25T17:05:13.000Z,90.30
2018-12-25T17:07:42.782Z,90.00
2018-12-25T17:10:12.635Z,89.80
2018-12-25T17:12:42.473Z,89.50
2018-12-25T17:15:12.333Z,89.80
2018-12-25T17:17:42.135Z,90.00
2018-12-25T17:20:11.960Z,90.30
2018-12-25T17:22:41.802Z,90.60
2018-12-25T17:25:11.565Z,90.10
2018-12-25T17:27:41.330Z,90.10
2018-12-25T17:30:11.086Z,90.30
2018-12-25T17:32:40.895Z,90.30
2018-12-25T17:35:10.689Z,90.60
2018-12-25T17:37:40.500Z,90.70
2018-12-25T17:40:10.263Z,90.90
2018-12-25T17:42:40.066Z,90.60
2018-12-25T17:45:09.853Z,90.50
2018-12-25T17:47:39.638Z,90.50
2018-12-25T17:50:09.464Z,90.00
2018-12-25T17:52:39.320Z,90.00
2018-12-25T17:55:09.084Z,89.90
2018-12-25T17:57:38.877Z,89.80
2018-12-25T18:00:08.827Z,89.40
2018-12-25T18:02:38.573Z,89.30
2018-12-25T18:05:12.071Z,89.40
2018-12-25T18:07:39.787Z,89.40
2018-12-25T18:10:09.677Z,89.50
2018-12-25T18:12:39.491Z,89.80
2018-12-25T18:15:09.311Z,89.90
2018-12-25T18:17:39.114Z,90.10
2018-12-25T18:20:08.859Z,90.00
2018-12-25T18:22:38.662Z,89.50
2018-12-25T18:25:08.406Z,89.70
2018-12-25T18:27:38.240Z,89.90
2018-12-25T18:30:08.237Z,89.60
2018-12-25T18:32:38.046Z,89.70
2018-12-25T18:35:07.826Z,89.50
2018-12-25T18:37:37.647Z,89.20
2018-12-25T18:40:07.541Z,89.10
2018-12-25T18:42:37.317Z,89.10
2018-12-25T18:45:07.569Z,89.20
2018-12-25T18:47:37.329Z,89.50
2018-12-25T18:50:08.359Z,89.30
2018-12-25T18:52:38.153Z,89.70
2018-12-25T18:55:08.249Z,89.50
2018-12-25T18:57:37.993Z,89.20
2018-12-25T19:00:10.398Z,89.20
2018-12-25T19:02:40.174Z,89.20
2018-12-25T19:05:09.887Z,89.10
2018-12-25T19:07:39.687Z,88.90
2018-12-25T19:10:10.785Z,88.80
2018-12-25T19:12:40.588Z,88.80
2018-12-25T19:15:20.219Z,88.70
2018-12-25T19:17:50.154Z,88.80
2018-12-25T19:20:19.929Z,88.60
2018-12-25T19:22:49.692Z,88.50
2018-12-25T19:25:19.509Z,88.60
2018-12-25T19:27:49.257Z,88.80
2018-12-25T19:30:21.026Z,88.40
2018-12-25T19:32:50.855Z,88.80
2018-12-25T19:35:20.746Z,89.00
2018-12-25T19:37:50.526Z,88.70
2018-12-25T19:40:20.898Z,88.40
2018-12-25T19:42:50.670Z,88.20
2018-12-25T19:45:20.697Z,87.90
2018-12-25T19:47:50.406Z,88.10
2018-12-25T19:50:20.281Z,88.10
2018-12-25T19:52:50.020Z,88.10
2018-12-25T19:55:19.873Z,88.10
2018-12-25T19:57:49.618Z,87.90
2018-12-25T20:00:19.359Z,88.00
2018-12-25T20:03:00.302Z,88.50
2018-12-25T20:06:21.785Z,88.20
2018-12-25T20:09:31.194Z,88.10
2018-12-25T20:12:46.765Z,87.90
2018-12-25T20:15:51.172Z,87.90
2018-12-25T20:18:51.925Z,87.90
2018-12-25T20:22:07.619Z,87.30
2018-12-25T20:25:20.129Z,87.60
2018-12-25T20:28:21.561Z,87.60
2018-12-25T20:31:38.022Z,87.20
2018-12-25T20:34:59.054Z,86.90
2018-12-25T20:38:24.061Z,86.90
2018-12-25T20:41:19.699Z,86.80
2018-12-25T20:44:42.160Z,86.70
2018-12-25T20:47:58.192Z,86.90
2018-12-25T20:51:06.147Z,86.90
2018-12-25T20:54:30.613Z,87.20
2018-12-25T20:57:42.770Z,87.60
2018-12-25T21:00:53.301Z,87.90
2018-12-25T21:04:09.212Z,88.20
2018-12-25T21:07:15.890Z,88.60
2018-12-25T21:10:28.618Z,88.40
2018-12-25T21:13:30.495Z,88.00
2018-12-25T21:16:36.825Z,87.70
2018-12-25T21:19:59.968Z,88.10
2018-12-25T21:23:05.534Z,88.20
2018-12-25T21:26:30.253Z,88.40
2018-12-25T21:29:00.093Z,88.50
2018-12-25T21:31:30.013Z,88.40
2018-12-25T21:33:59.817Z,88.50
2018-12-25T21:36:30.042Z,88.40
2018-12-25T21:38:59.899Z,88.30
2018-12-25T21:41:29.838Z,88.30
2018-12-25T21:44:00.009Z,88.90
2018-12-25T21:46:31.065Z,88.60
2018-12-25T21:49:01.197Z,88.60
2018-12-25T21:51:31.001Z,88.40
2018-12-25T21:54:00.913Z,88.30
2018-12-25T21:56:31.082Z,88.50
2018-12-25T21:59:01.135Z,88.70
2018-12-25T22:01:31.115Z,88.90
2018-12-25T22:04:00.886Z,89.10
2018-12-25T22:06:30.893Z,88.90
2018-12-25T22:09:00.675Z,88.70
2018-12-25T22:11:30.397Z,88.40
2018-12-25T22:14:00.318Z,88.70
2018-12-25T22:16:30.109Z,89.10
2018-12-25T22:18:59.874Z,89.10
2018-12-25T22:21:29.606Z,89.40
2018-12-25T22:23:59.352Z,89.50
2018-12-25T22:26:29.146Z,89.40
2018-12-25T22:28:58.914Z,89.10
2018-12-25T22:31:28.702Z,89.00
2018-12-25T22:33:58.488Z,88.70
2018-12-25T22:36:28.321Z,88.60
2018-12-25T22:38:58.082Z,88.50
2018-12-25T22:41:27.909Z,88.10
2018-12-25T22:43:57.637Z,87.80
2018-12-25T22:46:27.537Z,87.70
2018-12-25T22:48:57.426Z,87.50
2018-12-25T22:51:27.230Z,87.50
2018-12-25T22:53:57.161Z,87.70
2018-12-25T22:56:26.953Z,87.50
2018-12-25T22:58:56.697Z,87.20
2018-12-25T23:01:26.650Z,87.00
2018-12-25T23:03:56.484Z,87.10
2018-12-25T23:06:26.225Z,87.30
2018-12-25T23:08:56.074Z,87.80
2018-12-25T23:11:25.890Z,87.70
2018-12-25T23:13:55.674Z,87.70
2018-12-25T23:16:25.701Z,87.70
2018-12-25T23:18:55.545Z,87.60
2018-12-25T23:21:25.420Z,87.40
2018-12-25T23:23:55.239Z,87.40
2018-12-25T23:26:25.089Z,87.50
2018-12-25T23:28:54.869Z,87.40
2018-12-25T23:31:24.613Z,87.70
2018-12-25T23:33:54.357Z,88.00
2018-12-25T23:36:24.114Z,88.10
2018-12-25T23:38:53.902Z,88.30
2018-12-25T23:41:23.733Z,88.30
2018-12-25T23:43:53.550Z,88.30
2018-12-25T23:46:23.410Z,88.60
2018-12-25T23:48:53.161Z,88.50
2018-12-25T23:51:22.912Z,88.70
2018-12-25T23:53:52.722Z,88.60
2018-12-25T23:56:22.493Z,88.40
2018-12-25T23:58:52.320Z,88.90
